Time;durP1;ratioP1;P1;durP2;ratioP2;P2;SDS_P1;SDS_P2;PMS_P1;PMS_P2;Temp;Humidity;BMP_temperature;BMP_pressure;BME280_temperature;BME280_humidity;BME280_pressure;Samples;Min_cycle;Max_cycle;Signal;HPM_P1;HPM_P2
2021/06/08 00:01:41;;;;;;;8.95;8.20;;;;;;;16.45;81.85;101985.06;5002407;28;20029;-83
2021/06/08 00:04:06;;;;;;;10.10;9.10;;;;;;;16.23;82.45;101986.34;5021360;28;20026;-82
2021/06/08 00:06:31;;;;;;;8.30;7.68;;;;;;;16.36;82.02;101987.00;5020460;28;20029;-82
2021/06/08 00:08:57;;;;;;;8.40;7.82;;;;;;;16.25;82.57;101986.31;5001169;28;20025;-82
2021/06/08 00:11:22;;;;;;;9.27;8.57;;;;;;;16.39;81.93;101989.56;5001721;28;20029;-82
2021/06/08 00:13:49;;;;;;;9.77;8.73;;;;;;;16.30;82.33;101979.19;5000559;28;20028;-82
2021/06/08 00:16:14;;;;;;;8.80;8.07;;;;;;;16.32;82.39;101981.78;5016779;28;20421;-83
2021/06/08 00:18:39;;;;;;;9.60;8.75;;;;;;;16.15;83.19;101983.00;5017804;28;20045;-82
2021/06/08 00:21:05;;;;;;;9.45;8.75;;;;;;;16.25;82.65;101983.69;5005705;28;20112;-83
2021/06/08 00:23:30;;;;;;;10.68;9.15;;;;;;;16.25;83.12;101982.81;5022771;28;20418;-82
2021/06/08 00:25:56;;;;;;;9.90;9.10;;;;;;;16.33;82.89;101986.19;5007401;28;20038;-82
2021/06/08 00:28:21;;;;;;;10.93;10.07;;;;;;;16.21;83.39;101984.63;5021241;28;20406;-84
2021/06/08 00:30:46;;;;;;;11.05;10.15;;;;;;;16.15;83.31;101976.88;5035938;28;20192;-82
2021/06/08 00:33:12;;;;;;;10.93;9.93;;;;;;;16.14;83.66;101980.38;5019223;28;20026;-82
2021/06/08 00:35:39;;;;;;;12.02;10.70;;;;;;;16.11;83.81;101983.09;5017839;28;20025;-82
2021/06/08 00:38:05;;;;;;;10.30;9.40;;;;;;;16.25;83.17;101975.78;5035381;28;20037;-83
2021/06/08 00:40:30;;;;;;;11.00;9.35;;;;;;;16.36;82.85;101978.19;5021840;28;20072;-84
2021/06/08 00:42:55;;;;;;;10.98;9.80;;;;;;;16.36;82.73;101975.56;5005740;28;20394;-84
2021/06/08 00:45:21;;;;;;;10.88;9.75;;;;;;;16.31;83.30;101972.16;5021288;28;20022;-84
2021/06/08 00:47:47;;;;;;;13.48;10.85;;;;;;;16.18;83.53;101974.16;5022652;28;20080;-83
2021/06/08 00:50:13;;;;;;;11.23;10.10;;;;;;;16.18;83.54;101976.81;5022865;28;20032;-84
2021/06/08 00:52:38;;;;;;;10.10;9.30;;;;;;;16.31;83.13;101982.72;5023640;28;20017;-84
2021/06/08 00:55:04;;;;;;;12.43;11.00;;;;;;;16.22;83.17;101967.94;5006868;28;20030;-84
2021/06/08 00:57:29;;;;;;;11.88;10.88;;;;;;;16.03;84.58;101970.94;5025457;28;20129;-83
2021/06/08 00:59:55;;;;;;;12.32;10.15;;;;;;;15.99;84.83;101971.00;5005336;28;20076;-85
2021/06/08 01:02:20;;;;;;;10.70;9.68;;;;;;;16.01;84.66;101964.81;5005813;28;20021;-83
2021/06/08 01:04:45;;;;;;;10.90;10.00;;;;;;;16.13;84.34;101968.09;5006124;28;20026;-84
2021/06/08 01:07:11;;;;;;;11.27;10.25;;;;;;;15.97;84.40;101965.78;5039100;28;20410;-82
2021/06/08 01:09:36;;;;;;;11.32;10.23;;;;;;;16.17;84.20;101973.31;5005505;28;20021;-83
2021/06/08 01:12:01;;;;;;;10.55;9.63;;;;;;;16.00;84.75;101970.13;5024072;28;20468;-83
2021/06/08 01:14:27;;;;;;;11.07;10.10;;;;;;;16.12;84.00;101955.84;5023937;28;20077;-84
2021/06/08 01:16:52;;;;;;;11.25;10.35;;;;;;;16.01;84.45;101959.53;5040199;28;20029;-83
2021/06/08 01:19:18;;;;;;;11.80;10.70;;;;;;;16.15;83.81;101961.06;5021697;28;20077;-83
2021/06/08 01:21:43;;;;;;;11.32;10.32;;;;;;;15.98;84.43;101964.88;5038107;28;20029;-82
2021/06/08 01:24:10;;;;;;;12.10;10.65;;;;;;;15.94;85.48;101965.84;5020268;28;20124;-82
2021/06/08 01:26:35;;;;;;;11.55;10.55;;;;;;;15.97;84.60;101964.91;5021835;28;20431;-82
2021/06/08 01:29:03;;;;;;;12.85;11.75;;;;;;;15.87;84.92;101966.84;5020883;28;20021;-82
2021/06/08 01:31:30;;;;;;;12.20;10.50;;;;;;;16.01;84.34;101974.50;5023071;28;20047;-82
2021/06/08 01:33:55;;;;;;;12.30;11.23;;;;;;;15.85;84.95;101973.91;5022736;28;20037;-83
2021/06/08 01:36:23;;;;;;;14.45;12.23;;;;;;;15.84;85.11;101980.94;5003893;28;20022;-82
2021/06/08 01:38:50;;;;;;;11.50;10.63;;;;;;;15.86;85.60;101975.66;5019244;28;20029;-83
2021/06/08 01:41:18;;;;;;;11.63;10.55;;;;;;;15.95;84.74;101974.59;5021235;28;20022;-83
2021/06/08 01:43:45;;;;;;;12.80;11.15;;;;;;;15.81;85.07;101974.84;5005976;28;20029;-81
2021/06/08 01:46:10;;;;;;;12.73;11.25;;;;;;;15.76;85.27;101974.03;5025404;28;20025;-80
2021/06/08 01:48:36;;;;;;;12.27;11.10;;;;;;;15.84;85.05;101969.53;5024887;28;20040;-82
2021/06/08 01:51:36;;;;;;;10.55;9.75;;;;;;;15.90;84.91;101977.31;5019236;28;20052;-82
2021/06/08 01:54:13;;;;;;;12.20;11.20;;;;;;;15.66;85.55;101974.19;5039037;28;20437;-81
2021/06/08 01:56:43;;;;;;;12.32;11.13;;;;;;;15.85;84.66;101979.16;5022832;28;20433;-83
2021/06/08 01:59:20;;;;;;;11.75;10.77;;;;;;;15.92;84.76;101975.50;5023158;28;20072;-81
2021/06/08 02:01:51;;;;;;;11.70;10.57;;;;;;;15.98;84.04;101980.69;5022197;28;20025;-82
2021/06/08 02:04:23;;;;;;;12.30;11.20;;;;;;;15.83;84.71;101981.84;5024861;28;20093;-84
2021/06/08 02:06:57;;;;;;;11.57;10.57;;;;;;;15.88;84.39;101977.34;5029473;28;20021;-83
2021/06/08 02:09:47;;;;;;;11.63;10.48;;;;;;;15.98;84.04;101979.81;5013357;28;20025;-82
2021/06/08 02:12:20;;;;;;;11.85;10.70;;;;;;;15.99;84.02;101982.44;5027306;28;20028;-84
2021/06/08 02:15:06;;;;;;;12.40;11.27;;;;;;;15.84;84.92;101982.69;5028436;28;20029;-83
2021/06/08 02:17:37;;;;;;;12.23;10.30;;;;;;;15.87;84.53;101982.66;5031425;28;20076;-83
2021/06/08 02:22:31;;;;;;;13.30;11.30;;;;;;;15.75;84.80;101988.09;5055630;28;20068;-81
2021/06/08 02:24:57;;;;;;;12.68;11.52;;;;;;;15.77;84.70;101984.53;5023459;28;20029;-81
2021/06/08 02:27:24;;;;;;;12.52;11.40;;;;;;;15.66;85.30;101995.25;5023168;28;20028;-80
2021/06/08 02:29:54;;;;;;;11.18;10.18;;;;;;;15.81;84.54;101988.03;5022685;28;20029;-80
2021/06/08 02:32:20;;;;;;;11.75;10.38;;;;;;;15.88;84.12;101997.53;5039896;28;20021;-81
2021/06/08 02:34:46;;;;;;;11.80;10.80;;;;;;;15.84;84.19;101985.31;5006162;28;20025;-81
2021/06/08 02:37:17;;;;;;;11.20;10.13;;;;;;;15.96;83.65;101987.75;5038959;28;20032;-81
2021/06/08 02:39:43;;;;;;;11.00;10.13;;;;;;;15.98;83.25;101996.50;5038988;28;20379;-81
2021/06/08 02:42:12;;;;;;;12.07;10.98;;;;;;;15.83;83.71;101999.41;5021988;28;20024;-80
2021/06/08 02:44:39;;;;;;;10.45;9.63;;;;;;;15.91;82.84;102007.16;5022266;28;20052;-81
2021/06/08 02:47:05;;;;;;;12.88;11.52;;;;;;;15.84;83.92;102006.41;5041310;28;20460;-81
2021/06/08 02:49:30;;;;;;;13.25;10.10;;;;;;;15.87;84.13;102001.09;5028444;28;20088;-80
2021/06/08 02:51:56;;;;;;;11.48;10.18;;;;;;;15.86;83.72;102004.63;5022475;28;20111;-81
2021/06/08 02:54:23;;;;;;;11.32;9.88;;;;;;;15.82;83.98;102005.56;5022206;28;20029;-80
2021/06/08 02:56:48;;;;;;;10.80;9.82;;;;;;;15.81;84.30;102006.47;5038409;28;20036;-80
2021/06/08 02:59:14;;;;;;;11.63;10.52;;;;;;;15.77;84.41;102000.34;5021565;28;20013;-80
2021/06/08 03:01:43;;;;;;;9.38;8.73;;;;;;;15.84;83.98;102001.13;5022017;28;20188;-81
2021/06/08 03:04:10;;;;;;;11.05;9.93;;;;;;;15.92;83.39;101999.22;5022325;28;20114;-81
2021/06/08 03:06:38;;;;;;;10.63;9.73;;;;;;;15.79;83.88;102005.56;5022793;28;20091;-81
2021/06/08 03:09:08;;;;;;;10.50;9.02;;;;;;;15.87;83.15;102004.59;5021986;28;20028;-80
2021/06/08 03:11:56;;;;;;;12.82;9.95;;;;;;;15.79;83.06;102001.19;5005174;28;20331;-80
2021/06/08 03:14:25;;;;;;;10.93;9.93;;;;;;;15.89;83.03;102000.16;5039477;28;20025;-80
2021/06/08 03:16:54;;;;;;;11.68;9.88;;;;;;;15.86;83.07;101999.34;5039775;28;20059;-80
2021/06/08 03:19:22;;;;;;;10.70;9.75;;;;;;;15.56;84.23;101991.03;5038738;28;20021;-81
2021/06/08 03:21:50;;;;;;;11.07;10.07;;;;;;;15.62;83.75;101992.69;5022451;28;20064;-81
2021/06/08 03:24:17;;;;;;;10.82;10.02;;;;;;;15.55;84.01;101997.19;5056634;28;20029;-81
2021/06/08 03:26:43;;;;;;;9.77;8.80;;;;;;;15.59;83.65;101996.25;5023081;28;20029;-81
2021/06/08 03:29:10;;;;;;;9.05;8.35;;;;;;;15.67;82.80;101999.63;5022797;28;20120;-80
2021/06/08 03:31:37;;;;;;;9.77;8.98;;;;;;;15.72;83.25;101999.56;5024008;28;20040;-80
2021/06/08 03:34:04;;;;;;;8.95;8.30;;;;;;;15.66;82.42;101995.25;5039340;28;20068;-80
2021/06/08 03:36:29;;;;;;;9.30;8.68;;;;;;;15.77;82.39;102002.13;5040048;28;20028;-80
2021/06/08 03:38:57;;;;;;;9.25;8.40;;;;;;;15.71;82.72;101997.81;5022166;28;20027;-80
2021/06/08 03:41:23;;;;;;;9.10;8.30;;;;;;;15.70;82.70;101996.06;5038605;28;20037;-80
2021/06/08 03:43:49;;;;;;;8.30;7.65;;;;;;;15.87;81.12;102001.97;5022238;28;20201;-80
2021/06/08 03:46:15;;;;;;;10.32;9.35;;;;;;;15.65;81.93;101998.81;5038820;28;20029;-80
2021/06/08 03:48:40;;;;;;;9.93;9.13;;;;;;;15.68;82.08;101996.09;5038588;28;20338;-80
2021/06/08 03:51:09;;;;;;;8.95;8.10;;;;;;;15.82;81.33;102001.16;5039360;28;20470;-80
2021/06/08 03:53:38;;;;;;;8.45;7.70;;;;;;;16.00;80.53;101997.31;5022545;28;20397;-80
2021/06/08 03:56:03;;;;;;;8.15;7.60;;;;;;;15.96;80.29;101998.28;5022492;28;20071;-80
2021/06/08 03:58:29;;;;;;;9.07;7.55;;;;;;;15.98;80.37;102001.78;5021798;28;20025;-80
2021/06/08 04:00:56;;;;;;;8.27;7.57;;;;;;;15.87;81.57;101995.84;5022364;28;20025;-80
2021/06/08 04:03:22;;;;;;;9.10;8.27;;;;;;;15.89;82.04;102002.78;5006258;28;20044;-80
2021/06/08 04:05:47;;;;;;;8.93;8.13;;;;;;;15.78;81.65;101998.59;5039063;28;20024;-80
2021/06/08 04:08:13;;;;;;;10.60;7.75;;;;;;;15.97;80.57;102000.03;5049112;28;20037;-81
2021/06/08 04:10:44;;;;;;;8.73;8.02;;;;;;;15.84;81.70;102003.75;5033661;28;20021;-81
2021/06/08 04:13:09;;;;;;;7.72;7.20;;;;;;;15.99;80.70;102000.88;5030330;28;20020;-80
2021/06/08 04:15:35;;;;;;;9.20;7.78;;;;;;;16.07;80.84;101999.88;5028652;28;20707;-81
2021/06/08 04:18:04;;;;;;;9.52;8.82;;;;;;;15.83;82.22;102002.06;5045862;28;20042;-81
2021/06/08 04:20:30;;;;;;;8.90;8.15;;;;;;;15.76;82.68;102003.88;5047080;28;20479;-80
2021/06/08 04:23:00;;;;;;;9.43;8.48;;;;;;;15.92;82.68;102006.28;5048180;28;20031;-80
2021/06/08 04:25:27;;;;;;;10.10;9.20;;;;;;;15.82;82.64;102006.44;5031879;28;20426;-80
2021/06/08 04:27:53;;;;;;;9.38;8.52;;;;;;;15.93;81.75;101995.72;5030957;28;20021;-80
2021/06/08 04:30:19;;;;;;;9.77;8.88;;;;;;;15.86;82.33;101997.56;5063689;28;20036;-81
2021/06/08 04:32:46;;;;;;;9.48;8.60;;;;;;;15.89;82.31;101996.66;5046699;28;20079;-81
2021/06/08 04:35:13;;;;;;;10.63;9.40;;;;;;;15.83;81.97;102000.28;5029699;28;20025;-82
2021/06/08 04:37:38;;;;;;;9.50;8.73;;;;;;;15.66;83.58;102000.50;5045608;28;20024;-80
2021/06/08 04:40:05;;;;;;;9.82;8.88;;;;;;;15.68;83.11;101993.47;5029105;28;20025;-80
2021/06/08 04:42:30;;;;;;;12.60;9.88;;;;;;;15.61;83.35;101997.13;5045829;28;20032;-80
2021/06/08 04:44:56;;;;;;;9.15;8.45;;;;;;;15.83;81.63;102002.06;5050204;28;20024;-80
2021/06/08 04:47:25;;;;;;;8.55;7.85;;;;;;;15.97;81.07;102000.03;5030523;28;20029;-80
2021/06/08 04:49:50;;;;;;;9.07;8.25;;;;;;;16.09;80.62;102008.59;5046519;28;20020;-80
2021/06/08 04:52:16;;;;;;;8.80;8.05;;;;;;;15.93;81.57;102003.63;5029145;28;20025;-80
2021/06/08 04:54:42;;;;;;;9.38;8.48;;;;;;;16.11;80.13;102006.81;5029096;28;20032;-80
2021/06/08 04:57:10;;;;;;;9.55;8.63;;;;;;;15.92;81.34;102003.66;5045561;28;20330;-80
2021/06/08 04:59:40;;;;;;;9.23;8.38;;;;;;;15.98;80.66;102007.03;5028708;28;20024;-80
2021/06/08 05:02:08;;;;;;;7.95;7.35;;;;;;;16.16;80.04;102005.81;5045493;28;20338;-80
2021/06/08 05:04:37;;;;;;;9.20;8.50;;;;;;;16.25;79.83;102010.03;5045929;28;20027;-80
2021/06/08 05:07:05;;;;;;;9.18;8.40;;;;;;;16.29;79.26;102009.13;5029101;28;20307;-80
2021/06/08 05:09:32;;;;;;;9.88;7.80;;;;;;;16.42;79.16;102006.25;5026772;28;20025;-78
2021/06/08 05:12:04;;;;;;;8.27;7.63;;;;;;;16.27;78.99;102008.25;5026650;28;20380;-78
2021/06/08 05:14:30;;;;;;;8.75;7.90;;;;;;;16.41;78.43;102009.75;5027774;28;20074;-79
2021/06/08 05:16:56;;;;;;;8.98;8.27;;;;;;;16.41;78.11;102009.75;5044808;28;20112;-79
2021/06/08 05:19:22;;;;;;;9.52;8.73;;;;;;;16.27;78.38;102010.91;5043940;28;20021;-79
2021/06/08 05:21:48;;;;;;;8.20;7.60;;;;;;;16.34;78.71;102007.22;5044687;28;20040;-79
2021/06/08 05:24:15;;;;;;;9.00;8.30;;;;;;;16.08;79.97;102006.88;5044490;28;20020;-79
2021/06/08 05:26:48;;;;;;;8.77;7.82;;;;;;;16.38;79.04;102005.41;5040125;28;20075;-79
2021/06/08 05:29:18;;;;;;;8.38;7.70;;;;;;;16.24;79.32;102008.31;5041227;28;20024;-80
2021/06/08 05:31:44;;;;;;;9.40;8.40;;;;;;;16.12;80.36;102016.47;5026310;28;20028;-80
2021/06/08 05:34:09;;;;;;;13.25;7.40;;;;;;;16.31;79.33;102007.31;5042181;28;20024;-79
2021/06/08 05:36:37;;;;;;;8.23;7.60;;;;;;;16.41;79.18;102015.03;5025723;28;20031;-79
2021/06/08 05:39:06;;;;;;;8.45;7.78;;;;;;;16.61;78.15;102018.13;5041529;28;20104;-80
2021/06/08 05:41:31;;;;;;;7.72;7.32;;;;;;;16.62;77.03;102014.63;5042254;28;20116;-79
2021/06/08 05:43:57;;;;;;;10.43;8.32;;;;;;;16.66;77.00;102013.66;5025185;28;20434;-79
2021/06/08 05:46:28;;;;;;;8.68;7.25;;;;;;;16.87;76.24;102014.94;5042119;28;20037;-79
2021/06/08 05:48:53;;;;;;;8.30;7.68;;;;;;;16.85;76.77;102010.59;5042208;28;20040;-80
2021/06/08 05:51:19;;;;;;;8.45;7.70;;;;;;;16.78;76.95;102019.56;5025603;28;20024;-81
2021/06/08 05:53:46;;;;;;;10.75;8.25;;;;;;;16.87;75.82;102008.81;5025894;28;20016;-80
2021/06/08 05:56:12;;;;;;;8.20;7.30;;;;;;;17.30;74.11;102018.44;5041878;28;20025;-80
2021/06/08 05:58:38;;;;;;;7.80;7.28;;;;;;;17.29;74.47;102021.09;5024765;28;20040;-81
2021/06/08 06:01:04;;;;;;;9.82;8.23;;;;;;;17.11;75.25;102022.38;5025185;28;20429;-79
2021/06/08 06:03:30;;;;;;;8.90;7.80;;;;;;;16.84;76.55;102024.72;5041242;28;20369;-80
2021/06/08 06:05:56;;;;;;;8.00;7.20;;;;;;;17.02;75.26;102024.34;5024433;28;20029;-80
2021/06/08 06:08:22;;;;;;;8.13;7.43;;;;;;;17.04;75.73;102033.09;5040089;28;20021;-80
2021/06/08 06:10:47;;;;;;;9.43;8.43;;;;;;;16.84;75.63;102028.22;5024677;28;20024;-80
2021/06/08 06:13:17;;;;;;;8.95;8.10;;;;;;;17.03;76.08;102028.72;5024369;28;20052;-80
2021/06/08 06:15:47;;;;;;;7.93;7.35;;;;;;;17.04;75.86;102033.09;5024941;28;20326;-80
2021/06/08 06:18:13;;;;;;;10.50;8.15;;;;;;;17.09;75.05;102029.50;5024942;28;20397;-80
2021/06/08 06:20:39;;;;;;;7.68;6.93;;;;;;;17.19;74.14;102031.00;5023995;28;20027;-79
2021/06/08 06:23:04;;;;;;;8.07;7.45;;;;;;;17.06;75.25;102026.00;5038257;28;20108;-79
2021/06/08 06:25:30;;;;;;;7.22;6.82;;;;;;;17.12;74.71;102029.41;5039647;28;20021;-79
2021/06/08 06:27:55;;;;;;;8.35;7.65;;;;;;;17.05;75.84;102026.91;5023792;28;20021;-79
2021/06/08 06:30:21;;;;;;;7.53;6.72;;;;;;;17.23;75.47;102033.56;5038938;28;20086;-75
2021/06/08 06:32:46;;;;;;;8.48;7.65;;;;;;;17.09;75.75;102033.00;5019561;28;20020;-75
2021/06/08 06:35:12;;;;;;;8.68;7.15;;;;;;;17.31;75.35;102035.16;5035177;28;20024;-77
2021/06/08 06:37:39;;;;;;;7.35;6.75;;;;;;;17.32;73.93;102032.47;5019445;28;20021;-77
2021/06/08 06:40:15;;;;;;;7.05;6.45;;;;;;;17.33;75.00;102030.69;5035568;28;20075;-77
2021/06/08 06:42:42;;;;;;;10.43;7.95;;;;;;;17.12;76.10;102034.69;5035273;28;20368;-77
2021/06/08 06:45:09;;;;;;;7.90;7.18;;;;;;;17.40;74.79;102035.78;5030254;28;20096;-77
2021/06/08 06:47:38;;;;;;;7.85;7.07;;;;;;;17.16;75.01;102036.38;5030026;28;20369;-77
2021/06/08 06:50:07;;;;;;;8.48;7.65;;;;;;;17.21;74.39;102039.78;5017165;28;20091;-77
2021/06/08 06:52:33;;;;;;;7.65;6.95;;;;;;;17.47;73.38;102033.03;5021774;28;20494;-77
2021/06/08 06:54:58;;;;;;;7.32;6.72;;;;;;;17.16;74.13;102037.22;5053452;28;20108;-76
2021/06/08 06:57:24;;;;;;;7.80;6.72;;;;;;;17.28;74.15;102044.00;5053747;28;20016;-77
2021/06/08 06:59:49;;;;;;;7.25;6.63;;;;;;;17.25;73.20;102041.44;5052997;28;20033;-77
2021/06/08 07:02:16;;;;;;;6.95;6.40;;;;;;;17.44;73.13;102041.00;5019573;28;20347;-77
2021/06/08 07:04:42;;;;;;;8.63;6.35;;;;;;;17.58;72.36;102038.91;5020211;28;20048;-77
2021/06/08 07:07:09;;;;;;;12.60;7.28;;;;;;;17.42;73.39;102042.81;5036438;28;20423;-76
2021/06/08 07:09:35;;;;;;;6.57;6.07;;;;;;;17.84;70.79;102046.19;5020136;28;20024;-76
2021/06/08 07:12:01;;;;;;;6.32;5.78;;;;;;;17.81;71.45;102045.41;5035834;28;20086;-77
2021/06/08 07:14:27;;;;;;;7.05;6.45;;;;;;;17.45;73.72;102048.03;5002889;28;20021;-77
2021/06/08 07:16:55;;;;;;;7.78;6.65;;;;;;;17.67;71.63;102049.25;5035821;28;20024;-77
2021/06/08 07:19:21;;;;;;;7.13;6.45;;;;;;;17.60;71.97;102052.97;5036279;28;20032;-78
2021/06/08 07:21:46;;;;;;;6.88;6.47;;;;;;;17.36;72.61;102049.97;5032535;28;20052;-76
2021/06/08 07:24:12;;;;;;;14.48;7.57;;;;;;;17.40;72.20;102054.28;5031723;28;20024;-76
2021/06/08 07:26:39;;;;;;;9.77;7.78;;;;;;;17.33;73.11;102059.72;5028319;28;20069;-75
2021/06/08 07:29:12;;;;;;;6.97;6.47;;;;;;;17.45;72.46;102053.31;5015240;28;20099;-76
2021/06/08 07:31:49;;;;;;;8.05;7.15;;;;;;;17.60;71.24;102055.59;5045283;28;20057;-76
2021/06/08 07:34:22;;;;;;;8.27;7.45;;;;;;;17.88;69.58;102053.13;5013823;28;20024;-77
2021/06/08 07:36:48;;;;;;;7.72;6.95;;;;;;;18.03;69.90;102053.69;5005593;28;20488;-76
2021/06/08 07:39:19;;;;;;;10.00;7.25;;;;;;;17.94;70.04;102052.13;5016835;28;20025;-76
2021/06/08 07:41:51;;;;;;;7.57;7.00;;;;;;;17.62;71.00;102059.06;5036141;28;20025;-76
2021/06/08 07:44:24;;;;;;;8.82;7.45;;;;;;;17.58;73.39;102060.03;5035726;28;20502;-76
2021/06/08 07:46:50;;;;;;;7.88;6.55;;;;;;;17.76;72.92;102064.00;5009171;28;20036;-76
2021/06/08 07:49:17;;;;;;;9.85;6.50;;;;;;;18.04;71.38;102060.72;5020658;28;20313;-76
2021/06/08 07:51:43;;;;;;;6.75;6.32;;;;;;;17.96;71.63;102071.47;5015699;28;20418;-75
2021/06/08 07:54:09;;;;;;;10.32;7.60;;;;;;;18.30;68.96;102060.00;5014526;28;20070;-76
2021/06/08 07:56:36;;;;;;;10.25;6.97;;;;;;;18.14;69.62;102069.28;5017347;28;20120;-76
2021/06/08 07:59:01;;;;;;;6.80;6.30;;;;;;;18.37;68.90;102072.16;5025096;28;20025;-75
2021/06/08 08:01:27;;;;;;;8.40;6.68;;;;;;;18.47;68.32;102071.91;5004812;28;20021;-76
2021/06/08 08:03:52;;;;;;;7.28;6.57;;;;;;;18.79;67.38;102072.78;5029363;28;20434;-76
2021/06/08 08:06:20;;;;;;;8.50;6.65;;;;;;;18.83;66.89;102071.75;5031874;28;20052;-75
2021/06/08 08:08:49;;;;;;;7.03;6.43;;;;;;;18.98;66.44;102067.84;5015609;28;20029;-76
2021/06/08 08:11:17;;;;;;;7.07;6.47;;;;;;;18.98;66.21;102074.03;5029176;28;20018;-75
2021/06/08 08:13:46;;;;;;;6.70;5.82;;;;;;;19.69;63.20;102068.31;5032497;28;20021;-75
2021/06/08 08:16:13;;;;;;;5.63;5.28;;;;;;;20.16;60.59;102064.97;5028052;28;20029;-77
2021/06/08 08:18:41;;;;;;;6.25;5.45;;;;;;;19.96;62.27;102066.53;5016832;23;20672;-77
2021/06/08 08:21:09;;;;;;;5.95;5.22;;;;;;;19.37;64.63;102071.06;5047370;28;20062;-80
2021/06/08 08:23:35;;;;;;;7.65;5.13;;;;;;;19.61;63.48;102071.19;5033941;28;20025;-80
2021/06/08 08:26:04;;;;;;;6.07;5.53;;;;;;;19.08;64.08;102072.81;5019935;28;20029;-80
2021/06/08 08:28:30;;;;;;;5.88;5.40;;;;;;;20.79;59.75;102059.22;5029551;28;20033;-81
2021/06/08 08:31:00;;;;;;;8.32;5.63;;;;;;;21.45;55.95;102067.28;5017233;28;20028;-80
2021/06/08 08:33:27;;;;;;;5.13;4.80;;;;;;;20.32;61.13;102060.88;5013975;28;20014;-83
2021/06/08 08:35:53;;;;;;;6.15;5.40;;;;;;;20.02;61.33;102063.66;5015767;28;20458;-80
2021/06/08 08:38:18;;;;;;;6.22;5.80;;;;;;;20.03;62.46;102064.56;5038728;28;20025;-80
2021/06/08 08:40:44;;;;;;;9.15;6.50;;;;;;;20.26;60.84;102061.97;5009848;28;20449;-80
2021/06/08 08:43:09;;;;;;;6.15;4.75;;;;;;;20.73;58.82;102063.81;5021085;28;20032;-81
2021/06/08 08:45:34;;;;;;;5.38;4.97;;;;;;;21.44;57.00;102061.06;5017528;28;20445;-80
2021/06/08 08:48:00;;;;;;;6.97;5.00;;;;;;;21.19;57.55;102058.56;5025871;28;20018;-80
2021/06/08 08:50:26;;;;;;;5.15;4.80;;;;;;;20.97;57.07;102057.66;5034589;28;20039;-79
2021/06/08 08:52:57;;;;;;;5.55;5.03;;;;;;;20.65;58.06;102057.06;5031942;28;20029;-80
2021/06/08 08:55:24;;;;;;;5.25;4.85;;;;;;;20.61;59.23;102043.00;5020507;28;20036;-80
2021/06/08 08:57:51;;;;;;;8.52;5.20;;;;;;;20.61;59.52;102050.97;5018822;28;20055;-78
2021/06/08 09:00:16;;;;;;;4.78;4.38;;;;;;;21.13;57.00;102049.94;5019746;28;20025;-75
2021/06/08 09:02:43;;;;;;;4.60;4.20;;;;;;;21.67;55.85;102050.47;5035113;28;20099;-78
2021/06/08 09:05:10;;;;;;;4.22;3.70;;;;;;;21.93;53.48;102055.56;5024483;28;20101;-76
2021/06/08 09:07:35;;;;;;;4.97;4.60;;;;;;;20.84;56.37;102051.94;5021018;28;20025;-76
2021/06/08 09:10:00;;;;;;;4.38;4.03;;;;;;;21.37;55.33;102046.31;5008770;28;20098;-76
2021/06/08 09:12:26;;;;;;;6.05;4.30;;;;;;;21.16;56.31;102047.16;5022672;28;20028;-77
2021/06/08 09:14:51;;;;;;;4.50;4.15;;;;;;;21.78;54.13;102048.22;5022490;28;20063;-77
2021/06/08 09:17:19;;;;;;;7.85;3.58;;;;;;;21.69;54.19;102049.50;5010971;28;20672;-77
2021/06/08 09:19:45;;;;;;;5.78;4.22;;;;;;;22.65;50.76;102042.69;5018114;28;20045;-77
2021/06/08 09:22:12;;;;;;;4.32;3.92;;;;;;;22.67;50.56;102042.63;5038908;28;20096;-77
2021/06/08 09:24:41;;;;;;;5.47;4.60;;;;;;;21.22;55.31;102046.94;5020960;28;20035;-77
2021/06/08 09:27:08;;;;;;;4.50;3.97;;;;;;;20.98;57.14;102057.56;5055473;28;20385;-77
2021/06/08 09:29:34;;;;;;;4.45;3.97;;;;;;;21.62;54.76;102048.00;5055465;28;20025;-76
2021/06/08 09:32:25;;;;;;;4.18;3.88;;;;;;;22.65;50.91;102044.50;5056550;28;20021;-77
2021/06/08 09:34:59;;;;;;;4.75;3.85;;;;;;;22.67;50.39;102040.81;5022304;28;20116;-77
2021/06/08 09:37:41;;;;;;;6.70;3.97;;;;;;;20.94;56.38;102042.69;5038833;28;20105;-77
2021/06/08 09:40:16;;;;;;;5.28;3.60;;;;;;;21.06;54.99;102042.22;5010462;28;20040;-77
2021/06/08 09:42:42;;;;;;;4.85;4.35;;;;;;;20.52;57.94;102043.34;5051284;28;20017;-76
2021/06/08 09:45:14;;;;;;;5.68;3.45;;;;;;;21.33;55.79;102041.19;5020815;28;20401;-78
2021/06/08 09:47:41;;;;;;;3.97;3.78;;;;;;;22.59;50.70;102035.84;5032077;28;20052;-78
2021/06/08 09:50:28;;;;;;;4.90;4.20;;;;;;;21.35;54.70;102034.91;5058098;28;20087;-80
2021/06/08 09:53:31;;;;;;;4.05;3.75;;;;;;;22.27;52.89;102031.94;5024884;28;20493;-78
2021/06/08 09:55:58;;;;;;;4.22;3.70;;;;;;;23.07;49.54;102028.28;5030369;28;20036;-76
2021/06/08 09:58:25;;;;;;;5.35;4.90;;;;;;;22.18;51.48;102032.34;5001673;28;20354;-77
2021/06/08 10:01:09;;;;;;;4.30;3.97;;;;;;;21.51;54.40;102028.94;5002458;28;20095;-77
2021/06/08 10:03:38;;;;;;;4.47;4.17;;;;;;;22.88;50.29;102035.44;5036488;28;20299;-77
2021/06/08 10:06:09;;;;;;;3.90;3.60;;;;;;;23.32;49.37;102029.78;5019196;28;20283;-77
2021/06/08 10:08:36;;;;;;;7.30;4.57;;;;;;;23.85;46.45;102021.84;5018578;28;20309;-77
2021/06/08 10:11:02;;;;;;;4.40;3.70;;;;;;;23.70;47.40;102026.16;5001876;28;20428;-77
2021/06/08 10:13:27;;;;;;;4.30;4.00;;;;;;;22.80;50.58;102027.81;5015653;28;20169;-77
2021/06/08 10:15:58;;;;;;;4.35;3.95;;;;;;;23.67;49.62;102024.50;5022475;28;20025;-78
2021/06/08 10:18:26;;;;;;;3.85;3.58;;;;;;;23.89;46.54;102026.97;5057234;28;20017;-77
2021/06/08 10:20:56;;;;;;;3.55;3.25;;;;;;;24.19;46.23;102025.47;5041616;28;20108;-77
2021/06/08 10:23:27;;;;;;;4.90;3.22;;;;;;;23.53;47.98;102019.00;5065097;28;20021;-77
2021/06/08 10:26:12;;;;;;;3.70;3.40;;;;;;;23.05;51.42;102016.81;5059171;28;20103;-76
2021/06/08 10:28:38;;;;;;;3.75;3.00;;;;;;;22.36;49.38;102014.72;5042222;28;20032;-77
2021/06/08 10:31:04;;;;;;;3.80;3.30;;;;;;;22.56;49.56;102016.47;5024686;28;20339;-77
2021/06/08 10:33:30;;;;;;;2.72;2.63;;;;;;;23.23;48.56;102016.91;5040970;28;20032;-77
2021/06/08 10:35:56;;;;;;;3.25;2.95;;;;;;;22.52;50.30;102020.22;5022261;28;20025;-77
2021/06/08 10:38:22;;;;;;;2.53;2.40;;;;;;;23.60;45.95;102009.75;5038133;28;20322;-77
2021/06/08 10:40:52;;;;;;;2.50;2.35;;;;;;;24.43;42.93;102016.13;5021593;28;20457;-77
2021/06/08 10:43:29;;;;;;;5.53;3.30;;;;;;;22.55;47.99;102015.63;5056061;28;20040;-77
2021/06/08 10:45:56;;;;;;;3.15;2.90;;;;;;;23.42;45.72;102012.41;5021432;28;20017;-78
2021/06/08 10:48:41;;;;;;;3.10;2.90;;;;;;;24.41;45.32;101998.47;5033626;28;20029;-77
2021/06/08 10:51:09;;;;;;;;;;;;;;;24.98;42.66;101998.03;5037788;28;20028;-77
2021/06/08 10:53:37;;;;;;;3.10;2.90;;;;;;;24.07;46.21;102006.47;5056263;28;19915;-77
2021/06/08 10:56:27;;;;;;;3.88;3.53;;;;;;;24.54;43.76;101998.66;5055973;28;20564;-77
2021/06/08 10:59:03;;;;;;;2.88;2.60;;;;;;;24.59;45.17;101999.28;5057573;28;20025;-78
2021/06/08 11:01:41;;;;;;;4.75;3.47;;;;;;;24.47;44.96;101995.44;5040220;28;20032;-77
2021/06/08 11:04:09;;;;;;;5.70;4.20;;;;;;;24.62;45.28;101999.13;5040396;28;20029;-77
2021/06/08 11:06:44;;;;;;;5.60;3.20;;;;;;;25.02;41.97;102002.25;5039702;28;20056;-77
2021/06/08 11:09:14;;;;;;;2.92;2.72;;;;;;;24.99;40.90;101997.06;5057632;28;20025;-77
2021/06/08 11:11:59;;;;;;;3.88;3.40;;;;;;;23.71;45.25;101994.06;5041049;28;20031;-77
2021/06/08 11:14:31;;;;;;;2.55;2.15;;;;;;;24.20;44.02;101992.47;5040200;28;20031;-77
2021/06/08 11:16:58;;;;;;;3.70;2.30;;;;;;;25.02;40.91;101996.91;5041421;28;20315;-77
2021/06/08 11:19:45;;;;;;;2.90;2.70;;;;;;;25.45;39.72;101997.09;5040163;28;20037;-77
2021/06/08 11:22:19;;;;;;;3.10;2.80;;;;;;;25.57;40.27;101995.53;5057239;28;20033;-77
2021/06/08 11:24:49;;;;;;;3.10;2.90;;;;;;;25.77;40.38;101993.50;5021930;28;20083;-77
2021/06/08 11:27:15;;;;;;;3.10;2.90;;;;;;;26.85;36.25;101996.69;5039227;28;20285;-77
2021/06/08 11:29:45;;;;;;;2.92;2.70;;;;;;;25.72;40.01;101991.06;5022553;28;20084;-77